sensor_id;sensor_type;location;lat;lon;timestamp;temperature;humidity
212;DHT22;16228;48.800;9.002;2022-10-23T00:00:18;11.00;96.90
212;DHT22;16228;48.800;9.002;2022-10-23T00:02:51;10.90;96.90
212;DHT22;16228;48.800;9.002;2022-10-23T00:05:20;10.90;96.90
212;DHT22;16228;48.800;9.002;2022-10-23T00:07:51;10.90;96.90
212;DHT22;16228;48.800;9.002;2022-10-23T00:10:20;10.90;96.90
212;DHT22;16228;48.800;9.002;2022-10-23T00:12:48;10.90;96.90
212;DHT22;16228;48.800;9.002;2022-10-23T00:15:17;10.90;96.90
212;DHT22;16228;48.800;9.002;2022-10-23T00:17:45;11.00;96.90
212;DHT22;16228;48.800;9.002;2022-10-23T00:20:13;11.00;96.90
212;DHT22;16228;48.800;9.002;2022-10-23T00:22:42;11.00;96.90
212;DHT22;16228;48.800;9.002;2022-10-23T00:25:10;10.90;96.90
212;DHT22;16228;48.800;9.002;2022-10-23T00:27:37;10.80;96.90
212;DHT22;16228;48.800;9.002;2022-10-23T00:30:05;10.80;96.90
212;DHT22;16228;48.800;9.002;2022-10-23T00:32:32;10.90;96.90
212;DHT22;16228;48.800;9.002;2022-10-23T00:35:00;10.90;96.90
212;DHT22;16228;48.800;9.002;2022-10-23T00:37:27;10.90;96.90
212;DHT22;16228;48.800;9.002;2022-10-23T00:39:56;10.80;96.90
212;DHT22;16228;48.800;9.002;2022-10-23T00:42:23;10.70;96.90
212;DHT22;16228;48.800;9.002;2022-10-23T00:45:11;10.70;96.90
212;DHT22;16228;48.800;9.002;2022-10-23T00:47:38;10.70;96.90
212;DHT22;16228;48.800;9.002;2022-10-23T00:50:06;10.70;96.90
212;DHT22;16228;48.800;9.002;2022-10-23T00:52:37;10.60;96.90
212;DHT22;16228;48.800;9.002;2022-10-23T00:55:08;10.60;96.90
212;DHT22;16228;48.800;9.002;2022-10-23T00:57:36;10.50;96.90
212;DHT22;16228;48.800;9.002;2022-10-23T01:00:07;10.50;96.90
212;DHT22;16228;48.800;9.002;2022-10-23T01:02:35;10.50;96.90
212;DHT22;16228;48.800;9.002;2022-10-23T01:05:02;10.50;96.90
212;DHT22;16228;48.800;9.002;2022-10-23T01:07:33;10.50;96.90
212;DHT22;16228;48.800;9.002;2022-10-23T01:10:07;10.50;96.90
212;DHT22;16228;48.800;9.002;2022-10-23T01:12:44;10.40;96.90
212;DHT22;16228;48.800;9.002;2022-10-23T01:15:16;10.40;96.90
212;DHT22;16228;48.800;9.002;2022-10-23T01:17:50;10.40;96.90
212;DHT22;16228;48.800;9.002;2022-10-23T01:20:30;10.30;96.90
212;DHT22;16228;48.800;9.002;2022-10-23T01:23:27;10.20;96.90
212;DHT22;16228;48.800;9.002;2022-10-23T01:26:14;10.20;96.90
212;DHT22;16228;48.800;9.002;2022-10-23T01:28:48;10.20;96.90
212;DHT22;16228;48.800;9.002;2022-10-23T01:31:23;10.20;96.90
212;DHT22;16228;48.800;9.002;2022-10-23T01:33:56;10.20;96.90
212;DHT22;16228;48.800;9.002;2022-10-23T01:36:27;10.30;96.90
212;DHT22;16228;48.800;9.002;2022-10-23T01:38:58;10.30;96.90
212;DHT22;16228;48.800;9.002;2022-10-23T01:41:29;10.20;96.90
212;DHT22;16228;48.800;9.002;2022-10-23T01:44:05;10.20;96.90
212;DHT22;16228;48.800;9.002;2022-10-23T01:46:34;10.20;96.90
212;DHT22;16228;48.800;9.002;2022-10-23T01:49:03;10.20;96.90
212;DHT22;16228;48.800;9.002;2022-10-23T01:51:32;10.20;96.90
212;DHT22;16228;48.800;9.002;2022-10-23T01:54:00;10.20;96.90
212;DHT22;16228;48.800;9.002;2022-10-23T01:56:31;10.10;96.90
212;DHT22;16228;48.800;9.002;2022-10-23T01:59:03;10.20;96.90
212;DHT22;16228;48.800;9.002;2022-10-23T02:01:32;10.30;96.90
212;DHT22;16228;48.800;9.002;2022-10-23T02:04:02;10.20;96.90
212;DHT22;16228;48.800;9.002;2022-10-23T02:06:31;10.20;96.90
212;DHT22;16228;48.800;9.002;2022-10-23T02:08:58;10.30;96.90
212;DHT22;16228;48.800;9.002;2022-10-23T02:11:25;10.20;96.90
212;DHT22;16228;48.800;9.002;2022-10-23T02:13:56;10.10;96.90
212;DHT22;16228;48.800;9.002;2022-10-23T02:16:30;10.20;96.90
212;DHT22;16228;48.800;9.002;2022-10-23T02:19:08;10.10;96.90
212;DHT22;16228;48.800;9.002;2022-10-23T02:21:44;10.10;96.90
212;DHT22;16228;48.800;9.002;2022-10-23T02:24:17;10.10;96.90
212;DHT22;16228;48.800;9.002;2022-10-23T02:26:51;10.10;96.90
212;DHT22;16228;48.800;9.002;2022-10-23T02:29:24;10.20;96.90
212;DHT22;16228;48.800;9.002;2022-10-23T02:31:55;10.20;96.90
212;DHT22;16228;48.800;9.002;2022-10-23T02:34:22;10.20;96.90
212;DHT22;16228;48.800;9.002;2022-10-23T02:36:49;10.20;96.90
212;DHT22;16228;48.800;9.002;2022-10-23T02:39:16;10.20;96.90
212;DHT22;16228;48.800;9.002;2022-10-23T02:41:46;10.30;96.90
212;DHT22;16228;48.800;9.002;2022-10-23T02:44:30;10.40;96.90
212;DHT22;16228;48.800;9.002;2022-10-23T02:47:09;10.50;96.90
212;DHT22;16228;48.800;9.002;2022-10-23T02:49:46;10.40;96.90
212;DHT22;16228;48.800;9.002;2022-10-23T02:52:18;10.50;96.90
212;DHT22;16228;48.800;9.002;2022-10-23T02:54:57;10.50;96.90
212;DHT22;16228;48.800;9.002;2022-10-23T02:57:29;10.60;96.90
212;DHT22;16228;48.800;9.002;2022-10-23T03:00:04;10.50;96.90
212;DHT22;16228;48.800;9.002;2022-10-23T03:02:36;10.60;96.90
212;DHT22;16228;48.800;9.002;2022-10-23T03:05:07;10.60;96.90
212;DHT22;16228;48.800;9.002;2022-10-23T03:07:35;10.60;96.90
212;DHT22;16228;48.800;9.002;2022-10-23T03:10:02;10.60;96.90
212;DHT22;16228;48.800;9.002;2022-10-23T03:12:29;10.70;96.90
212;DHT22;16228;48.800;9.002;2022-10-23T03:14:56;10.60;96.90
212;DHT22;16228;48.800;9.002;2022-10-23T03:17:23;10.70;96.90
212;DHT22;16228;48.800;9.002;2022-10-23T03:19:52;10.70;96.90
212;DHT22;16228;48.800;9.002;2022-10-23T03:22:19;10.70;96.90
212;DHT22;16228;48.800;9.002;2022-10-23T03:24:46;10.70;96.90
212;DHT22;16228;48.800;9.002;2022-10-23T03:27:13;10.70;96.90
212;DHT22;16228;48.800;9.002;2022-10-23T03:29:41;10.60;96.90
212;DHT22;16228;48.800;9.002;2022-10-23T03:32:08;10.60;96.90
212;DHT22;16228;48.800;9.002;2022-10-23T03:34:35;10.60;96.90
212;DHT22;16228;48.800;9.002;2022-10-23T03:37:03;10.60;96.90
212;DHT22;16228;48.800;9.002;2022-10-23T03:39:30;10.60;96.90
212;DHT22;16228;48.800;9.002;2022-10-23T03:41:57;10.60;96.90
212;DHT22;16228;48.800;9.002;2022-10-23T03:44:25;10.60;96.90
212;DHT22;16228;48.800;9.002;2022-10-23T03:46:52;10.70;96.90
212;DHT22;16228;48.800;9.002;2022-10-23T03:49:19;10.60;96.90
212;DHT22;16228;48.800;9.002;2022-10-23T03:51:46;10.60;96.90
212;DHT22;16228;48.800;9.002;2022-10-23T03:54:20;10.70;96.90
212;DHT22;16228;48.800;9.002;2022-10-23T03:56:47;10.70;96.90
212;DHT22;16228;48.800;9.002;2022-10-23T03:59:15;10.60;96.90
212;DHT22;16228;48.800;9.002;2022-10-23T04:01:42;10.60;96.90
212;DHT22;16228;48.800;9.002;2022-10-23T04:04:10;10.50;96.90
212;DHT22;16228;48.800;9.002;2022-10-23T04:06:38;10.60;96.90
212;DHT22;16228;48.800;9.002;2022-10-23T04:09:05;10.60;96.90
212;DHT22;16228;48.800;9.002;2022-10-23T04:11:34;10.60;96.90
212;DHT22;16228;48.800;9.002;2022-10-23T04:14:01;10.60;96.90
212;DHT22;16228;48.800;9.002;2022-10-23T04:16:28;10.60;96.90
212;DHT22;16228;48.800;9.002;2022-10-23T04:18:55;10.60;96.90
212;DHT22;16228;48.800;9.002;2022-10-23T04:21:22;10.60;96.90
212;DHT22;16228;48.800;9.002;2022-10-23T04:23:49;10.60;96.90
212;DHT22;16228;48.800;9.002;2022-10-23T04:26:16;10.60;96.90
212;DHT22;16228;48.800;9.002;2022-10-23T04:28:44;10.60;96.90
212;DHT22;16228;48.800;9.002;2022-10-23T04:31:11;10.60;96.90
212;DHT22;16228;48.800;9.002;2022-10-23T04:33:38;10.60;96.90
212;DHT22;16228;48.800;9.002;2022-10-23T04:36:06;10.60;96.90
212;DHT22;16228;48.800;9.002;2022-10-23T04:38:33;10.70;96.90
212;DHT22;16228;48.800;9.002;2022-10-23T04:41:00;10.80;96.90
212;DHT22;16228;48.800;9.002;2022-10-23T04:43:27;10.80;96.90
212;DHT22;16228;48.800;9.002;2022-10-23T04:45:55;10.80;96.90
212;DHT22;16228;48.800;9.002;2022-10-23T04:48:22;10.90;96.90
212;DHT22;16228;48.800;9.002;2022-10-23T04:50:56;11.00;96.90
212;DHT22;16228;48.800;9.002;2022-10-23T04:53:24;11.00;96.90
212;DHT22;16228;48.800;9.002;2022-10-23T04:55:51;11.10;96.90
212;DHT22;16228;48.800;9.002;2022-10-23T04:58:18;11.20;96.90
212;DHT22;16228;48.800;9.002;2022-10-23T05:00:46;11.30;96.90
212;DHT22;16228;48.800;9.002;2022-10-23T05:03:15;11.30;96.90
212;DHT22;16228;48.800;9.002;2022-10-23T05:05:42;11.40;96.90
212;DHT22;16228;48.800;9.002;2022-10-23T05:08:10;11.40;96.90
212;DHT22;16228;48.800;9.002;2022-10-23T05:10:38;11.50;96.90
212;DHT22;16228;48.800;9.002;2022-10-23T05:13:06;11.40;96.90
212;DHT22;16228;48.800;9.002;2022-10-23T05:15:33;11.40;96.90
212;DHT22;16228;48.800;9.002;2022-10-23T05:18:07;11.50;96.90
212;DHT22;16228;48.800;9.002;2022-10-23T05:20:38;11.50;96.90
212;DHT22;16228;48.800;9.002;2022-10-23T05:23:07;11.40;96.90
212;DHT22;16228;48.800;9.002;2022-10-23T05:25:35;11.40;96.90
212;DHT22;16228;48.800;9.002;2022-10-23T05:28:02;11.40;96.90
212;DHT22;16228;48.800;9.002;2022-10-23T05:30:30;11.50;96.90
212;DHT22;16228;48.800;9.002;2022-10-23T05:32:59;11.50;96.90
212;DHT22;16228;48.800;9.002;2022-10-23T05:35:26;11.40;96.90
212;DHT22;16228;48.800;9.002;2022-10-23T05:37:57;11.50;96.90
212;DHT22;16228;48.800;9.002;2022-10-23T05:40:25;11.50;96.90
212;DHT22;16228;48.800;9.002;2022-10-23T05:42:52;11.40;96.90
212;DHT22;16228;48.800;9.002;2022-10-23T05:45:19;11.40;96.90
212;DHT22;16228;48.800;9.002;2022-10-23T05:47:46;11.40;96.90
212;DHT22;16228;48.800;9.002;2022-10-23T05:50:14;11.40;96.90
212;DHT22;16228;48.800;9.002;2022-10-23T05:52:40;11.40;96.90
212;DHT22;16228;48.800;9.002;2022-10-23T05:55:09;11.40;96.90
212;DHT22;16228;48.800;9.002;2022-10-23T05:57:36;11.40;96.90
212;DHT22;16228;48.800;9.002;2022-10-23T06:00:04;11.40;96.90
212;DHT22;16228;48.800;9.002;2022-10-23T06:02:31;11.40;96.90
212;DHT22;16228;48.800;9.002;2022-10-23T06:04:58;11.40;96.90
212;DHT22;16228;48.800;9.002;2022-10-23T06:07:27;11.50;96.90
212;DHT22;16228;48.800;9.002;2022-10-23T06:09:54;11.50;96.90
212;DHT22;16228;48.800;9.002;2022-10-23T06:12:22;11.40;96.90
212;DHT22;16228;48.800;9.002;2022-10-23T06:14:49;11.40;96.90
212;DHT22;16228;48.800;9.002;2022-10-23T06:17:16;11.40;96.90
212;DHT22;16228;48.800;9.002;2022-10-23T06:19:44;11.50;96.90
212;DHT22;16228;48.800;9.002;2022-10-23T06:22:11;11.50;96.90
212;DHT22;16228;48.800;9.002;2022-10-23T06:24:38;11.50;96.90
212;DHT22;16228;48.800;9.002;2022-10-23T06:27:05;11.40;96.90
212;DHT22;16228;48.800;9.002;2022-10-23T06:29:33;11.60;96.90
212;DHT22;16228;48.800;9.002;2022-10-23T06:32:00;11.50;96.90
212;DHT22;16228;48.800;9.002;2022-10-23T06:34:27;11.60;96.90
212;DHT22;16228;48.800;9.002;2022-10-23T06:36:54;11.70;96.90
212;DHT22;16228;48.800;9.002;2022-10-23T06:39:21;11.90;96.90
212;DHT22;16228;48.800;9.002;2022-10-23T06:41:48;11.90;96.90
212;DHT22;16228;48.800;9.002;2022-10-23T06:44:15;12.00;96.90
212;DHT22;16228;48.800;9.002;2022-10-23T06:46:44;12.00;96.90
212;DHT22;16228;48.800;9.002;2022-10-23T06:49:12;12.10;96.90
212;DHT22;16228;48.800;9.002;2022-10-23T06:51:40;12.20;96.90
212;DHT22;16228;48.800;9.002;2022-10-23T06:54:09;12.20;96.90
212;DHT22;16228;48.800;9.002;2022-10-23T06:56:36;12.30;96.90
212;DHT22;16228;48.800;9.002;2022-10-23T06:59:03;12.40;96.90
212;DHT22;16228;48.800;9.002;2022-10-23T07:01:32;12.50;96.90
212;DHT22;16228;48.800;9.002;2022-10-23T07:04:00;12.60;96.90
212;DHT22;16228;48.800;9.002;2022-10-23T07:06:27;12.70;96.90
212;DHT22;16228;48.800;9.002;2022-10-23T07:08:54;12.80;96.90
212;DHT22;16228;48.800;9.002;2022-10-23T07:11:21;12.70;96.90
212;DHT22;16228;48.800;9.002;2022-10-23T07:13:49;12.90;96.90
212;DHT22;16228;48.800;9.002;2022-10-23T07:16:18;12.90;96.90
212;DHT22;16228;48.800;9.002;2022-10-23T07:18:48;13.00;96.90
212;DHT22;16228;48.800;9.002;2022-10-23T07:21:16;13.20;96.90
212;DHT22;16228;48.800;9.002;2022-10-23T07:23:43;13.20;96.90
212;DHT22;16228;48.800;9.002;2022-10-23T07:26:13;13.30;96.90
212;DHT22;16228;48.800;9.002;2022-10-23T07:28:41;13.40;96.90
212;DHT22;16228;48.800;9.002;2022-10-23T07:31:09;13.60;96.90
212;DHT22;16228;48.800;9.002;2022-10-23T07:33:36;13.70;96.90
212;DHT22;16228;48.800;9.002;2022-10-23T07:36:04;13.90;96.90
212;DHT22;16228;48.800;9.002;2022-10-23T07:38:33;14.00;96.90
212;DHT22;16228;48.800;9.002;2022-10-23T07:41:01;14.20;96.90
212;DHT22;16228;48.800;9.002;2022-10-23T07:43:28;14.20;96.90
212;DHT22;16228;48.800;9.002;2022-10-23T07:45:55;14.40;96.90
212;DHT22;16228;48.800;9.002;2022-10-23T07:48:23;14.60;96.90
212;DHT22;16228;48.800;9.002;2022-10-23T07:50:52;14.70;96.90
212;DHT22;16228;48.800;9.002;2022-10-23T07:53:22;14.70;96.90
212;DHT22;16228;48.800;9.002;2022-10-23T07:55:54;14.80;96.90
212;DHT22;16228;48.800;9.002;2022-10-23T07:58:22;15.10;96.90
212;DHT22;16228;48.800;9.002;2022-10-23T08:00:53;15.20;96.90
212;DHT22;16228;48.800;9.002;2022-10-23T08:03:20;15.40;96.90
212;DHT22;16228;48.800;9.002;2022-10-23T08:05:47;15.60;96.90
212;DHT22;16228;48.800;9.002;2022-10-23T08:08:14;15.70;96.90
212;DHT22;16228;48.800;9.002;2022-10-23T08:10:41;15.80;96.90
212;DHT22;16228;48.800;9.002;2022-10-23T08:13:11;15.90;96.90
212;DHT22;16228;48.800;9.002;2022-10-23T08:15:39;16.10;96.90
212;DHT22;16228;48.800;9.002;2022-10-23T08:18:06;16.30;96.90
212;DHT22;16228;48.800;9.002;2022-10-23T08:20:37;16.50;96.90
212;DHT22;16228;48.800;9.002;2022-10-23T08:23:04;16.80;96.90
212;DHT22;16228;48.800;9.002;2022-10-23T08:25:32;17.00;96.90
212;DHT22;16228;48.800;9.002;2022-10-23T08:27:59;17.30;96.90
212;DHT22;16228;48.800;9.002;2022-10-23T08:30:28;17.50;96.90
212;DHT22;16228;48.800;9.002;2022-10-23T08:32:55;17.70;96.90
212;DHT22;16228;48.800;9.002;2022-10-23T08:35:22;17.80;96.90
212;DHT22;16228;48.800;9.002;2022-10-23T08:37:49;17.90;96.90
212;DHT22;16228;48.800;9.002;2022-10-23T08:40:18;17.90;96.90
212;DHT22;16228;48.800;9.002;2022-10-23T08:42:51;17.90;96.90
212;DHT22;16228;48.800;9.002;2022-10-23T08:45:29;17.90;96.90
212;DHT22;16228;48.800;9.002;2022-10-23T08:48:00;18.00;96.90
212;DHT22;16228;48.800;9.002;2022-10-23T08:50:34;18.10;96.90
212;DHT22;16228;48.800;9.002;2022-10-23T08:53:04;18.30;96.90
212;DHT22;16228;48.800;9.002;2022-10-23T08:55:40;18.40;96.90
212;DHT22;16228;48.800;9.002;2022-10-23T08:58:13;18.60;96.90
212;DHT22;16228;48.800;9.002;2022-10-23T09:00:43;18.80;96.90
212;DHT22;16228;48.800;9.002;2022-10-23T09:03:11;19.10;96.90
212;DHT22;16228;48.800;9.002;2022-10-23T09:05:54;19.30;96.90
212;DHT22;16228;48.800;9.002;2022-10-23T09:08:33;19.40;96.90
212;DHT22;16228;48.800;9.002;2022-10-23T09:11:03;19.40;96.90
212;DHT22;16228;48.800;9.002;2022-10-23T09:13:56;19.40;96.90
212;DHT22;16228;48.800;9.002;2022-10-23T09:16:40;19.60;96.90
212;DHT22;16228;48.800;9.002;2022-10-23T09:19:12;19.90;96.90
212;DHT22;16228;48.800;9.002;2022-10-23T09:21:40;20.00;96.90
212;DHT22;16228;48.800;9.002;2022-10-23T09:24:13;20.30;96.90
212;DHT22;16228;48.800;9.002;2022-10-23T09:26:43;20.60;96.90
212;DHT22;16228;48.800;9.002;2022-10-23T09:29:21;20.90;96.90
212;DHT22;16228;48.800;9.002;2022-10-23T09:31:52;21.20;96.90
212;DHT22;16228;48.800;9.002;2022-10-23T09:34:21;21.20;96.00
212;DHT22;16228;48.800;9.002;2022-10-23T09:36:50;21.30;96.70
212;DHT22;16228;48.800;9.002;2022-10-23T09:39:25;21.60;95.00
212;DHT22;16228;48.800;9.002;2022-10-23T09:41:53;21.90;96.10
212;DHT22;16228;48.800;9.002;2022-10-23T09:44:21;22.70;95.10
212;DHT22;16228;48.800;9.002;2022-10-23T09:46:51;23.90;89.70
212;DHT22;16228;48.800;9.002;2022-10-23T09:49:21;25.50;88.30
212;DHT22;16228;48.800;9.002;2022-10-23T09:52:04;27.40;83.40
212;DHT22;16228;48.800;9.002;2022-10-23T09:54:35;29.30;76.30
212;DHT22;16228;48.800;9.002;2022-10-23T09:57:11;30.20;72.30
212;DHT22;16228;48.800;9.002;2022-10-23T09:59:41;31.10;70.40
212;DHT22;16228;48.800;9.002;2022-10-23T10:02:20;31.80;70.10
212;DHT22;16228;48.800;9.002;2022-10-23T10:04:50;32.20;69.40
212;DHT22;16228;48.800;9.002;2022-10-23T10:07:19;32.00;67.50
212;DHT22;16228;48.800;9.002;2022-10-23T10:09:47;31.90;68.10
212;DHT22;16228;48.800;9.002;2022-10-23T10:12:30;31.50;66.70
212;DHT22;16228;48.800;9.002;2022-10-23T10:15:04;30.70;69.40
212;DHT22;16228;48.800;9.002;2022-10-23T10:17:42;29.60;71.60
212;DHT22;16228;48.800;9.002;2022-10-23T10:20:46;29.20;76.80
212;DHT22;16228;48.800;9.002;2022-10-23T10:23:20;28.60;75.70
212;DHT22;16228;48.800;9.002;2022-10-23T10:25:57;28.50;77.70
212;DHT22;16228;48.800;9.002;2022-10-23T10:28:31;28.70;73.50
212;DHT22;16228;48.800;9.002;2022-10-23T10:31:09;28.80;72.60
212;DHT22;16228;48.800;9.002;2022-10-23T10:33:47;29.20;74.80
212;DHT22;16228;48.800;9.002;2022-10-23T10:36:34;29.90;70.20
212;DHT22;16228;48.800;9.002;2022-10-23T10:39:10;30.30;69.50
212;DHT22;16228;48.800;9.002;2022-10-23T10:41:56;30.30;71.80
212;DHT22;16228;48.800;9.002;2022-10-23T10:44:44;30.40;73.80
212;DHT22;16228;48.800;9.002;2022-10-23T10:47:14;30.50;74.60
212;DHT22;16228;48.800;9.002;2022-10-23T10:49:53;30.60;70.50
212;DHT22;16228;48.800;9.002;2022-10-23T10:52:26;30.00;71.20
212;DHT22;16228;48.800;9.002;2022-10-23T10:55:01;29.10;72.50
212;DHT22;16228;48.800;9.002;2022-10-23T10:57:32;28.30;74.50
212;DHT22;16228;48.800;9.002;2022-10-23T11:00:04;27.60;78.30
212;DHT22;16228;48.800;9.002;2022-10-23T11:02:36;26.70;77.10
212;DHT22;16228;48.800;9.002;2022-10-23T11:05:16;26.30;81.50
212;DHT22;16228;48.800;9.002;2022-10-23T11:07:53;25.90;78.70
212;DHT22;16228;48.800;9.002;2022-10-23T11:10:21;25.90;79.30
212;DHT22;16228;48.800;9.002;2022-10-23T11:12:49;26.00;81.00
212;DHT22;16228;48.800;9.002;2022-10-23T11:15:20;26.00;79.80
212;DHT22;16228;48.800;9.002;2022-10-23T11:17:51;26.10;82.40
212;DHT22;16228;48.800;9.002;2022-10-23T11:20:46;26.40;85.30
212;DHT22;16228;48.800;9.002;2022-10-23T11:23:42;26.20;82.40
212;DHT22;16228;48.800;9.002;2022-10-23T11:26:28;25.80;83.80
212;DHT22;16228;48.800;9.002;2022-10-23T11:29:12;25.20;83.40
212;DHT22;16228;48.800;9.002;2022-10-23T11:31:52;24.80;84.90
212;DHT22;16228;48.800;9.002;2022-10-23T11:34:43;24.60;86.10
212;DHT22;16228;48.800;9.002;2022-10-23T11:37:16;24.40;89.10
212;DHT22;16228;48.800;9.002;2022-10-23T11:39:58;24.30;89.00
212;DHT22;16228;48.800;9.002;2022-10-23T11:42:31;24.30;89.70
212;DHT22;16228;48.800;9.002;2022-10-23T11:44:59;24.20;87.30
212;DHT22;16228;48.800;9.002;2022-10-23T11:47:31;24.30;88.00
212;DHT22;16228;48.800;9.002;2022-10-23T11:50:25;24.30;89.20
212;DHT22;16228;48.800;9.002;2022-10-23T11:53:05;24.30;87.40
212;DHT22;16228;48.800;9.002;2022-10-23T11:55:36;24.50;88.00
212;DHT22;16228;48.800;9.002;2022-10-23T11:58:21;24.60;89.80
212;DHT22;16228;48.800;9.002;2022-10-23T12:00:58;24.80;86.90
212;DHT22;16228;48.800;9.002;2022-10-23T12:03:39;24.80;89.50
212;DHT22;16228;48.800;9.002;2022-10-23T12:06:18;25.00;88.30
212;DHT22;16228;48.800;9.002;2022-10-23T12:08:52;25.00;87.20
212;DHT22;16228;48.800;9.002;2022-10-23T12:11:26;25.10;90.40
212;DHT22;16228;48.800;9.002;2022-10-23T12:13:53;25.20;89.40
212;DHT22;16228;48.800;9.002;2022-10-23T12:16:20;25.20;89.20
212;DHT22;16228;48.800;9.002;2022-10-23T12:18:52;25.00;89.30
212;DHT22;16228;48.800;9.002;2022-10-23T12:21:22;25.00;91.80
212;DHT22;16228;48.800;9.002;2022-10-23T12:24:04;24.80;91.50
212;DHT22;16228;48.800;9.002;2022-10-23T12:29:47;24.50;89.80
212;DHT22;16228;48.800;9.002;2022-10-23T12:32:29;24.40;92.30
212;DHT22;16228;48.800;9.002;2022-10-23T12:35:19;24.50;91.10
212;DHT22;16228;48.800;9.002;2022-10-23T12:38:04;24.60;89.60
212;DHT22;16228;48.800;9.002;2022-10-23T12:40:37;24.90;88.00
212;DHT22;16228;48.800;9.002;2022-10-23T12:43:21;25.30;88.80
212;DHT22;16228;48.800;9.002;2022-10-23T12:45:49;25.50;88.20
212;DHT22;16228;48.800;9.002;2022-10-23T12:48:18;25.70;87.60
212;DHT22;16228;48.800;9.002;2022-10-23T12:50:48;26.20;88.60
212;DHT22;16228;48.800;9.002;2022-10-23T12:53:17;27.00;88.30
212;DHT22;16228;48.800;9.002;2022-10-23T12:55:52;27.80;84.00
212;DHT22;16228;48.800;9.002;2022-10-23T12:58:21;29.60;80.00
212;DHT22;16228;48.800;9.002;2022-10-23T13:00:52;30.70;77.50
212;DHT22;16228;48.800;9.002;2022-10-23T13:03:22;31.50;71.70
212;DHT22;16228;48.800;9.002;2022-10-23T13:05:50;32.10;70.80
212;DHT22;16228;48.800;9.002;2022-10-23T13:08:20;32.20;70.70
212;DHT22;16228;48.800;9.002;2022-10-23T13:10:49;32.10;71.20
212;DHT22;16228;48.800;9.002;2022-10-23T13:13:20;31.90;71.00
212;DHT22;16228;48.800;9.002;2022-10-23T13:15:48;31.10;72.70
212;DHT22;16228;48.800;9.002;2022-10-23T13:18:15;30.70;72.80
212;DHT22;16228;48.800;9.002;2022-10-23T13:20:54;30.80;70.80
212;DHT22;16228;48.800;9.002;2022-10-23T13:23:28;31.00;72.10
212;DHT22;16228;48.800;9.002;2022-10-23T13:25:59;30.80;72.10
212;DHT22;16228;48.800;9.002;2022-10-23T13:28:30;30.20;75.80
212;DHT22;16228;48.800;9.002;2022-10-23T13:31:21;30.20;75.80
212;DHT22;16228;48.800;9.002;2022-10-23T13:33:51;29.10;78.10
212;DHT22;16228;48.800;9.002;2022-10-23T13:36:30;27.40;77.60
212;DHT22;16228;48.800;9.002;2022-10-23T13:39:03;27.10;80.00
212;DHT22;16228;48.800;9.002;2022-10-23T13:41:37;26.30;79.40
212;DHT22;16228;48.800;9.002;2022-10-23T13:44:05;25.60;81.10
212;DHT22;16228;48.800;9.002;2022-10-23T13:46:32;24.90;84.00
212;DHT22;16228;48.800;9.002;2022-10-23T13:48:59;24.70;83.60
212;DHT22;16228;48.800;9.002;2022-10-23T13:51:27;24.40;86.50
212;DHT22;16228;48.800;9.002;2022-10-23T13:53:55;24.10;88.60
212;DHT22;16228;48.800;9.002;2022-10-23T13:56:24;23.80;90.80
212;DHT22;16228;48.800;9.002;2022-10-23T13:58:53;23.60;90.50
212;DHT22;16228;48.800;9.002;2022-10-23T14:01:22;23.40;92.40
212;DHT22;16228;48.800;9.002;2022-10-23T14:03:51;23.10;90.80
212;DHT22;16228;48.800;9.002;2022-10-23T14:06:18;22.90;96.00
212;DHT22;16228;48.800;9.002;2022-10-23T14:08:45;22.70;94.80
212;DHT22;16228;48.800;9.002;2022-10-23T14:11:15;22.50;96.50
212;DHT22;16228;48.800;9.002;2022-10-23T14:13:44;22.40;96.90
212;DHT22;16228;48.800;9.002;2022-10-23T14:16:14;22.20;96.90
212;DHT22;16228;48.800;9.002;2022-10-23T14:18:42;22.10;96.70
212;DHT22;16228;48.800;9.002;2022-10-23T14:21:11;22.10;96.90
212;DHT22;16228;48.800;9.002;2022-10-23T14:23:39;21.90;94.70
212;DHT22;16228;48.800;9.002;2022-10-23T14:26:07;21.80;94.60
212;DHT22;16228;48.800;9.002;2022-10-23T14:28:35;21.80;96.70
212;DHT22;16228;48.800;9.002;2022-10-23T14:31:03;21.70;96.90
212;DHT22;16228;48.800;9.002;2022-10-23T14:33:32;21.70;96.90
212;DHT22;16228;48.800;9.002;2022-10-23T14:35:59;21.60;96.90
212;DHT22;16228;48.800;9.002;2022-10-23T14:38:27;21.60;96.90
212;DHT22;16228;48.800;9.002;2022-10-23T14:40:54;21.50;96.90
212;DHT22;16228;48.800;9.002;2022-10-23T14:43:21;21.50;96.90
212;DHT22;16228;48.800;9.002;2022-10-23T14:45:48;21.40;96.90
212;DHT22;16228;48.800;9.002;2022-10-23T14:48:15;21.40;96.90
212;DHT22;16228;48.800;9.002;2022-10-23T14:50:45;21.30;96.90
212;DHT22;16228;48.800;9.002;2022-10-23T14:53:12;21.30;96.10
212;DHT22;16228;48.800;9.002;2022-10-23T14:55:39;21.40;96.90
212;DHT22;16228;48.800;9.002;2022-10-23T14:58:07;21.30;96.90
212;DHT22;16228;48.800;9.002;2022-10-23T15:00:34;21.20;96.90
212;DHT22;16228;48.800;9.002;2022-10-23T15:03:01;21.30;96.90
212;DHT22;16228;48.800;9.002;2022-10-23T15:05:28;21.30;96.90
212;DHT22;16228;48.800;9.002;2022-10-23T15:07:56;21.30;96.90
212;DHT22;16228;48.800;9.002;2022-10-23T15:10:23;21.20;96.90
212;DHT22;16228;48.800;9.002;2022-10-23T15:12:50;21.20;96.90
212;DHT22;16228;48.800;9.002;2022-10-23T15:15:17;21.10;96.90
212;DHT22;16228;48.800;9.002;2022-10-23T15:17:44;21.00;96.90
212;DHT22;16228;48.800;9.002;2022-10-23T15:20:11;21.00;96.90
212;DHT22;16228;48.800;9.002;2022-10-23T15:22:38;20.90;96.90
212;DHT22;16228;48.800;9.002;2022-10-23T15:25:08;20.90;96.90
212;DHT22;16228;48.800;9.002;2022-10-23T15:27:35;20.90;96.90
212;DHT22;16228;48.800;9.002;2022-10-23T15:30:02;20.80;96.90
212;DHT22;16228;48.800;9.002;2022-10-23T15:32:29;20.80;96.90
212;DHT22;16228;48.800;9.002;2022-10-23T15:34:56;20.70;96.90
212;DHT22;16228;48.800;9.002;2022-10-23T15:37:24;20.60;96.90
212;DHT22;16228;48.800;9.002;2022-10-23T15:39:51;20.50;96.90
212;DHT22;16228;48.800;9.002;2022-10-23T15:42:20;20.40;96.90
212;DHT22;16228;48.800;9.002;2022-10-23T15:44:47;20.40;96.90
212;DHT22;16228;48.800;9.002;2022-10-23T15:47:14;20.20;96.90
212;DHT22;16228;48.800;9.002;2022-10-23T15:49:41;20.20;96.90
212;DHT22;16228;48.800;9.002;2022-10-23T15:52:09;20.10;96.90
212;DHT22;16228;48.800;9.002;2022-10-23T15:54:36;20.10;96.90
212;DHT22;16228;48.800;9.002;2022-10-23T15:57:03;20.00;96.90
212;DHT22;16228;48.800;9.002;2022-10-23T15:59:32;20.00;96.90
212;DHT22;16228;48.800;9.002;2022-10-23T16:01:59;19.90;96.90
212;DHT22;16228;48.800;9.002;2022-10-23T16:04:26;19.80;96.90
212;DHT22;16228;48.800;9.002;2022-10-23T16:06:54;19.70;96.90
212;DHT22;16228;48.800;9.002;2022-10-23T16:09:21;19.60;96.90
212;DHT22;16228;48.800;9.002;2022-10-23T16:11:48;19.50;96.90
212;DHT22;16228;48.800;9.002;2022-10-23T16:14:16;19.40;96.90
212;DHT22;16228;48.800;9.002;2022-10-23T16:16:44;19.20;96.90
212;DHT22;16228;48.800;9.002;2022-10-23T16:19:11;19.10;96.90
212;DHT22;16228;48.800;9.002;2022-10-23T16:21:38;19.00;96.90
212;DHT22;16228;48.800;9.002;2022-10-23T16:24:07;18.90;96.90
212;DHT22;16228;48.800;9.002;2022-10-23T16:26:34;18.70;96.90